Time,TemperatureF,DewpointF,PressureIn,WindDirection,WindDirectionDegrees,WindSpeedMPH,WindSpeedGustMPH,Humidity,HourlyPrecipIn,Conditions,Clouds,dailyrainin,SoftwareType,DateUTC
2013-12-21 06:34:00,66.7,66.4,28.41,NNE,22,0.0,-999.0,99,-99.99,,,0.00,Acu-Link.com,2013-12-21 16:34:00,
2013-12-21 06:49:00,66.9,66.6,28.40,NNE,22,0.0,-999.0,99,-99.99,,,0.00,Acu-Link.com,2013-12-21 16:49:00,
2013-12-21 07:05:00,66.9,66.6,28.40,NNE,22,0.0,-999.0,99,-99.99,,,0.00,Acu-Link.com,2013-12-21 17:05:00,
2013-12-21 07:20:00,66.9,66.6,28.41,NNE,22,0.0,-999.0,99,-99.99,,,0.00,Acu-Link.com,2013-12-21 17:20:00,
2013-12-21 07:35:00,67.6,67.3,28.43,NNE,22,0.0,-999.0,99,-99.99,,,0.00,Acu-Link.com,2013-12-21 17:35:00,
2013-12-21 07:51:00,68.5,68.2,28.43,NNE,22,0.0,-999.0,99,-99.99,,,0.00,Acu-Link.com,2013-12-21 17:51:00,
2013-12-21 08:06:00,69.4,69.1,28.45,NNE,22,0.0,-999.0,99,-99.99,,,0.01,Acu-Link.com,2013-12-21 18:06:00,
2013-12-21 08:21:00,70.0,69.7,28.45,NNE,22,0.0,-999.0,99,-99.99,,,0.01,Acu-Link.com,2013-12-21 18:21:00,
2013-12-21 08:36:00,70.2,69.9,28.43,NNE,22,0.0,-999.0,99,-99.99,,,0.01,Acu-Link.com,2013-12-21 18:36:00,
2013-12-21 08:52:00,70.5,70.2,28.44,NNE,22,0.0,-999.0,99,-99.99,,,0.02,Acu-Link.com,2013-12-21 18:52:00,
2013-12-21 09:07:00,70.7,70.4,28.44,NNE,22,0.0,-999.0,99,-99.99,,,0.02,Acu-Link.com,2013-12-21 19:07:00,
2013-12-21 09:22:00,70.7,70.4,28.45,NNE,22,0.0,-999.0,99,-99.99,,,0.05,Acu-Link.com,2013-12-21 19:22:00,
2013-12-21 09:37:00,71.4,71.1,28.44,NNE,22,0.0,-999.0,99,-99.99,,,0.10,Acu-Link.com,2013-12-21 19:37:00,
2013-12-21 09:53:00,72.5,72.2,28.45,NNE,22,0.0,-999.0,99,-99.99,,,0.11,Acu-Link.com,2013-12-21 19:53:00,
2013-12-21 10:08:00,72.3,70.5,28.43,NNE,22,0.0,-999.0,94,-99.99,,,0.11,Acu-Link.com,2013-12-21 20:08:00,
2013-12-21 10:23:00,72.5,72.2,28.43,NNE,22,0.0,-999.0,99,-99.99,,,0.11,Acu-Link.com,2013-12-21 20:23:00,
2013-12-21 10:39:00,72.7,72.1,28.43,South,180,0.0,-999.0,98,-99.99,,,0.11,Acu-Link.com,2013-12-21 20:39:00,
2013-12-21 10:54:00,72.7,71.8,28.42,West,270,0.0,-999.0,97,-99.99,,,0.13,Acu-Link.com,2013-12-21 20:54:00,
2013-12-21 11:09:00,73.6,73.0,28.43,West,270,0.0,-999.0,98,-99.99,,,0.18,Acu-Link.com,2013-12-21 21:09:00,
2013-12-21 11:24:00,74.3,72.8,28.41,NNW,337,0.0,-999.0,95,-99.99,,,0.21,Acu-Link.com,2013-12-21 21:24:00,
2013-12-21 11:40:00,75.0,73.8,28.42,NW,315,1.1,-999.0,96,-99.99,,,0.21,Acu-Link.com,2013-12-21 21:40:00,
2013-12-21 11:55:00,75.0,72.8,28.40,West,270,0.0,-999.0,93,-99.99,,,0.21,Acu-Link.com,2013-12-21 21:55:00,
2013-12-21 12:10:00,75.6,73.7,28.40,NE,45,0.0,-999.0,94,-99.99,,,0.21,Acu-Link.com,2013-12-21 22:10:00,
2013-12-21 12:25:00,75.9,72.1,28.38,ENE,67,0.0,-999.0,88,-99.99,,,0.21,Acu-Link.com,2013-12-21 22:25:00,
2013-12-21 12:41:00,77.0,72.5,28.38,ENE,67,1.1,-999.0,86,-99.99,,,0.21,Acu-Link.com,2013-12-21 22:41:00,
2013-12-21 12:56:00,77.7,73.2,28.39,East,90,0.0,-999.0,86,-99.99,,,0.21,Acu-Link.com,2013-12-21 22:56:00,
2013-12-21 13:11:00,78.8,71.3,28.36,South,180,0.0,-999.0,78,-99.99,,,0.21,Acu-Link.com,2013-12-21 23:11:00,
2013-12-21 13:27:00,78.3,72.0,28.37,East,90,0.0,-999.0,81,-99.99,,,0.21,Acu-Link.com,2013-12-21 23:27:00,
2013-12-21 13:42:00,78.3,71.2,28.34,ENE,67,0.0,-999.0,79,-99.99,,,0.21,Acu-Link.com,2013-12-21 23:42:00,
2013-12-21 13:57:00,79.7,71.4,28.34,South,180,2.7,-999.0,76,-99.99,,,0.21,Acu-Link.com,2013-12-21 23:57:00,
2013-12-21 14:13:00,81.0,71.1,28.36,South,180,2.2,-999.0,72,-99.99,,,0.21,Acu-Link.com,2013-12-22 00:13:00,
2013-12-21 14:28:00,82.0,69.9,28.34,North,0,0.0,-999.0,67,-99.99,,,0.21,Acu-Link.com,2013-12-22 00:28:00,
2013-12-21 14:43:00,81.0,70.7,28.35,North,0,2.7,-999.0,71,-99.99,,,0.21,Acu-Link.com,2013-12-22 00:43:00,
2013-12-21 14:58:00,81.7,70.9,28.34,North,0,1.7,-999.0,70,-99.99,,,0.21,Acu-Link.com,2013-12-22 00:58:00,
2013-12-21 15:14:00,81.1,71.6,28.34,SE,135,0.0,-999.0,73,-99.99,,,0.21,Acu-Link.com,2013-12-22 01:14:00,
2013-12-21 15:29:00,81.1,71.2,28.32,SE,135,1.1,-999.0,72,-99.99,,,0.21,Acu-Link.com,2013-12-22 01:29:00,
2013-12-21 15:44:00,81.3,69.3,28.32,South,180,2.2,-999.0,67,-99.99,,,0.21,Acu-Link.com,2013-12-22 01:44:00,
2013-12-21 16:00:00,81.1,69.9,28.33,SE,135,0.0,-999.0,69,-99.99,,,0.21,Acu-Link.com,2013-12-22 02:00:00,
2013-12-21 16:15:00,80.1,70.2,28.33,West,270,0.0,-999.0,72,-99.99,,,0.21,Acu-Link.com,2013-12-22 02:15:00,
2013-12-21 16:30:00,79.0,69.6,28.33,SE,135,0.0,-999.0,73,-99.99,,,0.21,Acu-Link.com,2013-12-22 02:30:00,
2013-12-21 16:45:00,82.0,70.8,28.35,South,180,0.0,-999.0,69,-99.99,,,0.21,Acu-Link.com,2013-12-22 02:45:00,
2013-12-21 17:01:00,79.7,70.3,28.34,SSE,157,0.0,-999.0,73,-99.99,,,0.21,Acu-Link.com,2013-12-22 03:01:00,
2013-12-21 17:16:00,78.3,70.5,28.34,ESE,112,0.0,-999.0,77,-99.99,,,0.21,Acu-Link.com,2013-12-22 03:16:00,
2013-12-21 17:46:00,75.2,69.3,28.37,ENE,67,0.0,-999.0,82,-99.99,,,0.21,Acu-Link.com,2013-12-22 03:46:00,
2013-12-21 18:02:00,73.2,68.1,28.37,ENE,67,0.0,-999.0,84,-99.99,,,0.21,Acu-Link.com,2013-12-22 04:02:00,
2013-12-21 21:06:00,67.5,66.6,28.43,ENE,67,0.0,-999.0,97,-99.99,,,0.21,Acu-Link.com,2013-12-22 07:06:00,
2013-12-21 21:22:00,67.5,66.6,28.43,NE,45,0.0,-999.0,97,-99.99,,,0.21,Acu-Link.com,2013-12-22 07:22:00,
2013-12-21 22:00:00,67.3,66.7,28.48,NE,45,0.0,-999.0,98,-99.99,,,0.21,Acu-Link.com,2013-12-22 08:00:00,
2013-12-21 22:16:00,67.3,66.7,28.42,ENE,67,0.0,-999.0,98,-99.99,,,0.21,Acu-Link.com,2013-12-22 08:16:00,
2013-12-21 22:31:00,67.3,66.7,28.43,ENE,67,0.0,-999.0,98,-99.99,,,0.21,Acu-Link.com,2013-12-22 08:31:00,
2013-12-21 22:46:00,67.3,66.7,28.43,NE,45,0.0,-999.0,98,-99.99,,,0.21,Acu-Link.com,2013-12-22 08:46:00,
2013-12-21 23:01:00,67.3,66.7,28.44,NE,45,0.0,-999.0,98,-99.99,,,0.21,Acu-Link.com,2013-12-22 09:01:00,
2013-12-21 23:17:00,67.1,66.5,28.43,NE,45,0.0,-999.0,98,-99.99,,,0.21,Acu-Link.com,2013-12-22 09:17:00,
2013-12-21 23:32:00,67.1,66.5,28.43,NE,45,0.0,-999.0,98,-99.99,,,0.21,Acu-Link.com,2013-12-22 09:32:00,
2013-12-21 23:47:00,66.9,66.6,28.42,ENE,67,0.0,-999.0,99,-99.99,,,0.21,Acu-Link.com,2013-12-22 09:47:00,